createdAt,value
2018-09-17T00:00:27.120Z,0.00
2018-09-17T00:01:27.730Z,0.00
2018-09-17T00:02:28.341Z,0.00
2018-09-17T00:03:28.958Z,0.00
2018-09-17T00:04:29.569Z,0.00
2018-09-17T00:04:30.682Z,0.00
2018-09-17T00:06:30.192Z,0.00
2018-09-17T00:07:30.802Z,0.00
2018-09-17T00:08:31.411Z,0.00
2018-09-17T00:09:32.021Z,0.00
2018-09-17T00:10:32.622Z,0.00
2018-09-17T00:11:33.228Z,0.00
2018-09-17T00:12:33.836Z,0.00
2018-09-17T00:13:34.444Z,0.00
2018-09-17T00:14:35.059Z,0.00
2018-09-17T00:15:35.660Z,0.00
2018-09-17T00:16:36.273Z,0.00
2018-09-17T00:17:36.877Z,0.00
2018-09-17T00:18:37.486Z,0.00
2018-09-17T00:19:38.096Z,0.00
2018-09-17T00:20:38.713Z,0.00
2018-09-17T00:21:39.319Z,0.00
2018-09-17T00:22:39.927Z,0.00
2018-09-17T00:23:40.540Z,0.00
2018-09-17T00:24:41.147Z,0.00
2018-09-17T00:25:41.760Z,0.00
2018-09-17T00:26:42.412Z,0.00
2018-09-17T00:27:42.977Z,0.00
2018-09-17T00:28:43.589Z,0.00
2018-09-17T00:29:44.189Z,0.00
2018-09-17T00:30:44.803Z,0.00
2018-09-17T00:31:45.409Z,0.00
2018-09-17T00:32:46.029Z,0.00
2018-09-17T00:33:46.636Z,0.00
2018-09-17T00:34:47.240Z,0.00
2018-09-17T00:35:47.857Z,0.00
2018-09-17T00:36:48.453Z,0.00
2018-09-17T00:37:49.070Z,0.00
2018-09-17T00:38:49.686Z,0.00
2018-09-17T00:39:50.292Z,0.00
2018-09-17T00:40:50.905Z,0.00
2018-09-17T00:41:51.515Z,0.00
2018-09-17T00:42:52.172Z,0.00
2018-09-17T00:43:52.737Z,0.00
2018-09-17T00:44:53.342Z,0.00
2018-09-17T00:45:54.022Z,0.00
2018-09-17T00:46:54.581Z,0.00
2018-09-17T00:47:55.187Z,0.00
2018-09-17T00:48:55.800Z,0.00
2018-09-17T00:49:56.412Z,0.00
2018-09-17T00:50:57.019Z,0.00
2018-09-17T00:51:57.625Z,0.00
2018-09-17T00:52:58.240Z,0.00
2018-09-17T00:53:58.896Z,0.00
2018-09-17T00:54:59.450Z,0.00
2018-09-17T00:56:00.060Z,0.00
2018-09-17T00:57:00.664Z,0.00
2018-09-17T00:58:01.347Z,0.00
2018-09-17T00:59:01.885Z,0.00
2018-09-17T01:00:02.499Z,0.00
2018-09-17T01:01:03.101Z,0.00
2018-09-17T01:02:03.710Z,0.00
2018-09-17T01:03:04.324Z,0.00
2018-09-17T01:04:04.939Z,0.00
2018-09-17T01:05:05.545Z,0.00
2018-09-17T01:06:06.155Z,0.00
2018-09-17T01:07:06.770Z,0.00
2018-09-17T01:08:07.381Z,0.00
2018-09-17T01:09:07.992Z,0.00
2018-09-17T01:10:08.599Z,0.00
2018-09-17T01:11:09.211Z,0.00
2018-09-17T01:12:09.813Z,0.00
2018-09-17T01:13:10.427Z,0.00
2018-09-17T01:14:11.030Z,0.00
2018-09-17T01:15:11.682Z,0.00
2018-09-17T01:16:12.314Z,0.00
2018-09-17T01:16:13.398Z,0.00
2018-09-17T01:18:12.906Z,0.00
2018-09-17T01:19:13.523Z,0.00
2018-09-17T01:20:14.145Z,0.00
2018-09-17T01:21:14.738Z,0.00
2018-09-17T01:22:15.358Z,0.00
2018-09-17T01:23:15.967Z,0.00
2018-09-17T01:24:16.579Z,0.00
2018-09-17T01:25:17.187Z,0.00
2018-09-17T01:26:17.794Z,0.00
2018-09-17T01:27:18.396Z,0.00
2018-09-17T01:28:19.007Z,0.00
2018-09-17T01:29:19.614Z,0.00
2018-09-17T01:30:20.232Z,0.00
2018-09-17T01:31:20.834Z,0.00
2018-09-17T01:32:21.437Z,0.00
2018-09-17T01:33:22.045Z,0.00
2018-09-17T01:34:22.662Z,0.00
2018-09-17T01:35:23.274Z,0.00
2018-09-17T01:36:23.953Z,0.00
2018-09-17T01:37:24.483Z,0.00
2018-09-17T01:38:25.090Z,0.00
2018-09-17T01:39:25.703Z,0.00
2018-09-17T01:40:26.320Z,0.00
2018-09-17T01:41:27.015Z,0.00
2018-09-17T01:42:27.510Z,0.00
2018-09-17T01:43:28.118Z,0.00
2018-09-17T01:44:28.724Z,0.00
2018-09-17T01:45:29.334Z,0.00
2018-09-17T01:46:29.940Z,0.00
2018-09-17T01:47:30.550Z,0.00
2018-09-17T01:48:31.157Z,0.00
2018-09-17T01:49:31.766Z,0.00
2018-09-17T01:50:32.371Z,0.00
2018-09-17T01:51:32.977Z,0.00
2018-09-17T01:52:33.581Z,0.00
2018-09-17T01:53:34.189Z,0.00
2018-09-17T01:54:34.873Z,0.00
2018-09-17T01:55:35.415Z,0.00
2018-09-17T01:56:36.019Z,0.00
2018-09-17T01:57:36.627Z,0.00
2018-09-17T01:58:37.228Z,0.00
2018-09-17T01:59:37.847Z,0.00
2018-09-17T02:00:38.450Z,0.00
2018-09-17T02:01:39.062Z,0.00
2018-09-17T02:02:39.670Z,0.00
2018-09-17T02:03:40.276Z,0.00
2018-09-17T02:04:42.434Z,0.00
2018-09-17T02:05:43.039Z,0.00
2018-09-17T02:06:43.647Z,0.00
2018-09-17T02:07:44.257Z,0.00
2018-09-17T02:08:44.876Z,0.00
2018-09-17T02:09:45.547Z,0.00
2018-09-17T02:10:46.085Z,0.00
2018-09-17T02:11:46.690Z,0.00
2018-09-17T02:12:47.294Z,0.00
2018-09-17T02:13:47.902Z,0.00
2018-09-17T02:14:48.516Z,0.00
2018-09-17T02:15:49.185Z,0.00
2018-09-17T02:16:49.733Z,0.00
2018-09-17T02:17:50.391Z,0.00
2018-09-17T02:18:50.956Z,0.00
2018-09-17T02:19:51.566Z,0.00
2018-09-17T02:20:52.181Z,0.00
2018-09-17T02:21:52.783Z,0.00
2018-09-17T02:22:53.401Z,0.00
2018-09-17T02:23:54.000Z,0.00
2018-09-17T02:24:54.609Z,0.00
2018-09-17T02:25:55.258Z,0.00
2018-09-17T02:26:55.824Z,0.00
2018-09-17T02:27:56.431Z,0.00
2018-09-17T02:27:57.542Z,0.00
2018-09-17T02:29:59.924Z,0.00
2018-09-17T02:31:00.536Z,0.00
2018-09-17T02:32:01.143Z,0.00
2018-09-17T02:33:01.751Z,0.00
2018-09-17T02:34:02.356Z,0.00
2018-09-17T02:35:02.960Z,0.00
2018-09-17T02:36:03.597Z,0.00
2018-09-17T02:37:04.177Z,0.00
2018-09-17T02:38:04.844Z,0.00
2018-09-17T02:39:05.407Z,0.00
2018-09-17T02:40:06.005Z,0.00
2018-09-17T02:41:06.623Z,0.00
2018-09-17T02:42:07.227Z,0.00
2018-09-17T02:43:07.824Z,0.00
2018-09-17T02:44:08.439Z,0.00
2018-09-17T02:45:09.089Z,0.00
2018-09-17T02:46:09.651Z,0.00
2018-09-17T02:47:10.259Z,0.00
2018-09-17T02:48:10.869Z,0.00
2018-09-17T02:49:11.520Z,0.00
2018-09-17T02:50:12.116Z,0.00
2018-09-17T02:51:12.725Z,0.00
2018-09-17T02:52:13.329Z,0.00
2018-09-17T02:53:13.937Z,0.00
2018-09-17T02:54:14.542Z,0.00
2018-09-17T02:55:15.206Z,0.00
2018-09-17T02:56:15.765Z,0.00
2018-09-17T02:57:16.365Z,0.00
2018-09-17T02:58:16.977Z,0.00
2018-09-17T02:59:17.590Z,0.00
2018-09-17T03:00:18.191Z,0.00
2018-09-17T03:01:18.808Z,0.00
2018-09-17T03:02:19.422Z,0.00
2018-09-17T03:03:20.023Z,0.00
2018-09-17T03:04:20.631Z,0.00
2018-09-17T03:05:21.238Z,0.00
2018-09-17T03:06:21.845Z,0.00
2018-09-17T03:07:22.456Z,0.00
2018-09-17T03:08:23.064Z,0.00
2018-09-17T03:09:23.717Z,0.00
2018-09-17T03:10:24.280Z,0.00
2018-09-17T03:11:24.886Z,0.00
2018-09-17T03:12:25.490Z,0.00
2018-09-17T03:13:26.103Z,0.00
2018-09-17T03:14:26.709Z,0.00
2018-09-17T03:15:27.312Z,0.00
2018-09-17T03:16:27.922Z,0.00
2018-09-17T03:17:28.530Z,0.00
2018-09-17T03:18:29.138Z,0.00
2018-09-17T03:19:29.747Z,0.00
2018-09-17T03:20:30.354Z,0.00
2018-09-17T03:21:30.959Z,0.00
2018-09-17T03:22:31.654Z,0.00
2018-09-17T03:23:32.251Z,0.00
2018-09-17T03:24:32.905Z,0.00
2018-09-17T03:25:33.458Z,0.00
2018-09-17T03:26:34.068Z,0.00
2018-09-17T03:27:34.683Z,0.00
2018-09-17T03:28:35.297Z,0.00
2018-09-17T03:29:35.900Z,0.00
2018-09-17T03:30:36.515Z,0.00
2018-09-17T03:31:37.119Z,0.00
2018-09-17T03:32:37.729Z,0.00
2018-09-17T03:33:38.341Z,0.00
2018-09-17T03:34:38.942Z,0.00
2018-09-17T03:35:39.560Z,0.00
2018-09-17T03:36:40.172Z,0.00
2018-09-17T03:37:40.781Z,0.00
2018-09-17T03:38:41.390Z,0.00
2018-09-17T03:39:41.996Z,0.00
2018-09-17T03:39:43.944Z,0.00
2018-09-17T03:41:42.660Z,0.00
2018-09-17T03:42:43.222Z,0.00
2018-09-17T03:43:43.858Z,0.00
2018-09-17T03:44:45.440Z,0.00
2018-09-17T03:45:46.095Z,0.00
2018-09-17T03:46:46.787Z,0.00
2018-09-17T03:47:47.273Z,0.00
2018-09-17T03:48:47.930Z,0.00
2018-09-17T03:49:48.519Z,0.00
2018-09-17T03:50:49.134Z,0.00
2018-09-17T03:51:49.739Z,0.00
2018-09-17T03:52:50.344Z,0.00
2018-09-17T03:53:50.951Z,0.00
2018-09-17T03:54:51.556Z,0.00
2018-09-17T03:55:52.220Z,0.00
2018-09-17T03:56:52.791Z,0.00
2018-09-17T03:57:53.403Z,0.00
2018-09-17T03:58:54.015Z,0.00
2018-09-17T03:59:54.632Z,0.00
2018-09-17T04:00:55.227Z,0.00
2018-09-17T04:01:55.834Z,0.00
2018-09-17T04:02:56.482Z,0.00
2018-09-17T04:03:57.094Z,0.00
2018-09-17T04:04:57.690Z,0.00
2018-09-17T04:05:58.297Z,0.00
2018-09-17T04:06:58.902Z,0.00
2018-09-17T04:08:01.451Z,0.00
2018-09-17T04:09:02.057Z,0.00
2018-09-17T04:10:02.671Z,0.00
2018-09-17T04:11:03.292Z,0.00
2018-09-17T04:12:03.875Z,0.00
2018-09-17T04:13:04.484Z,0.00
2018-09-17T04:14:05.091Z,0.00
2018-09-17T04:15:05.701Z,0.00
2018-09-17T04:16:06.317Z,0.00
2018-09-17T04:17:06.927Z,0.00
2018-09-17T04:18:07.559Z,0.00
2018-09-17T04:19:08.169Z,0.00
2018-09-17T04:20:11.505Z,0.00
2018-09-17T04:21:12.047Z,0.00
2018-09-17T04:22:12.650Z,0.00
2018-09-17T04:23:13.261Z,0.00
2018-09-17T04:24:13.872Z,0.00
2018-09-17T04:25:14.493Z,0.00
2018-09-17T04:26:15.099Z,0.00
2018-09-17T04:27:15.739Z,0.00
2018-09-17T04:28:16.344Z,0.00
2018-09-17T04:29:16.961Z,0.00
2018-09-17T04:30:17.594Z,0.00
2018-09-17T04:31:18.182Z,0.00
2018-09-17T04:32:18.871Z,0.00
2018-09-17T04:33:19.438Z,0.00
2018-09-17T04:34:22.005Z,0.00
2018-09-17T04:35:22.559Z,0.00
2018-09-17T04:36:23.182Z,0.00
2018-09-17T04:37:23.805Z,0.00
2018-09-17T04:38:24.407Z,0.00
2018-09-17T04:39:25.053Z,0.00
2018-09-17T04:40:25.633Z,0.00
2018-09-17T04:41:26.275Z,0.00
2018-09-17T04:42:26.876Z,0.00
2018-09-17T04:43:27.479Z,0.00
2018-09-17T04:44:28.092Z,0.00
2018-09-17T04:45:28.692Z,0.00
2018-09-17T04:46:29.328Z,0.00
2018-09-17T04:47:29.901Z,0.00
2018-09-17T04:48:30.544Z,0.00
2018-09-17T04:49:31.112Z,0.00
2018-09-17T04:50:31.719Z,0.00
2018-09-17T04:51:32.325Z,0.00
2018-09-17T04:51:33.452Z,0.00
2018-09-17T04:53:32.949Z,0.00
2018-09-17T04:54:33.706Z,0.00
2018-09-17T04:55:34.196Z,0.00
2018-09-17T04:56:34.821Z,0.00
2018-09-17T04:57:35.474Z,0.00
2018-09-17T04:58:36.034Z,0.00
2018-09-17T04:59:36.644Z,0.00
2018-09-17T05:00:37.251Z,0.00
2018-09-17T05:01:37.858Z,0.00
2018-09-17T05:02:38.469Z,0.00
2018-09-17T05:03:39.079Z,0.00
2018-09-17T05:04:39.677Z,0.00
2018-09-17T05:05:40.307Z,0.00
2018-09-17T05:06:40.942Z,0.00
2018-09-17T05:07:41.571Z,0.00
2018-09-17T05:08:42.122Z,0.00
2018-09-17T05:09:42.732Z,0.00
2018-09-17T05:10:43.341Z,0.00
2018-09-17T05:11:43.954Z,0.00
2018-09-17T05:12:44.568Z,0.00
2018-09-17T05:13:45.168Z,0.00
2018-09-17T05:14:45.779Z,0.00
2018-09-17T05:16:01.670Z,0.00
2018-09-17T05:17:03.582Z,0.00
2018-09-17T05:18:04.052Z,0.00
2018-09-17T05:19:04.665Z,0.00
2018-09-17T05:20:05.268Z,0.00
2018-09-17T05:21:05.880Z,0.00
2018-09-17T05:22:06.489Z,0.00
2018-09-17T05:23:07.093Z,0.00
2018-09-17T05:24:07.713Z,0.00
2018-09-17T05:25:08.318Z,0.00
2018-09-17T05:26:08.923Z,0.00
2018-09-17T05:27:09.531Z,0.00
2018-09-17T05:28:10.137Z,0.00
2018-09-17T05:29:10.803Z,0.00
2018-09-17T05:30:11.342Z,0.00
2018-09-17T05:31:11.965Z,0.00
2018-09-17T05:32:12.553Z,0.00
2018-09-17T05:33:13.174Z,0.00
2018-09-17T05:34:13.884Z,0.00
2018-09-17T05:35:14.452Z,0.00
2018-09-17T05:36:14.987Z,0.00
2018-09-17T05:37:15.604Z,0.00
2018-09-17T05:38:16.214Z,0.00
2018-09-17T05:39:16.829Z,0.00
2018-09-17T05:40:17.430Z,0.00
2018-09-17T05:41:18.033Z,0.00
2018-09-17T05:42:18.710Z,0.00
2018-09-17T05:43:19.255Z,0.00
2018-09-17T05:44:19.871Z,0.00
2018-09-17T05:45:20.502Z,0.00
2018-09-17T05:46:21.108Z,0.00
2018-09-17T05:47:21.714Z,0.00
2018-09-17T05:48:22.317Z,0.00
2018-09-17T05:49:22.925Z,0.00
2018-09-17T05:50:23.538Z,0.00
2018-09-17T05:51:24.142Z,0.00
2018-09-17T05:52:24.749Z,0.00
2018-09-17T05:53:25.363Z,0.00
2018-09-17T05:54:25.970Z,0.00
2018-09-17T05:55:26.647Z,0.00
2018-09-17T05:56:27.189Z,0.00
2018-09-17T05:57:27.796Z,0.00
2018-09-17T05:58:28.405Z,0.00
2018-09-17T05:59:29.061Z,0.00
2018-09-17T06:00:29.624Z,0.00
2018-09-17T06:01:39.767Z,0.00
2018-09-17T06:04:33.493Z,0.00
2018-09-17T06:05:34.917Z,0.00
2018-09-17T06:06:35.277Z,0.00
2018-09-17T06:07:36.333Z,0.00
2018-09-17T06:08:36.209Z,0.00
2018-09-17T06:09:34.630Z,0.00
2018-09-17T06:10:35.158Z,0.00
2018-09-17T06:11:35.759Z,0.00
2018-09-17T06:12:36.370Z,0.00
2018-09-17T06:13:36.987Z,0.00
2018-09-17T06:14:37.727Z,0.00
2018-09-17T06:15:38.219Z,0.00
2018-09-17T06:16:38.828Z,0.00
2018-09-17T06:17:39.438Z,0.00
2018-09-17T06:18:40.044Z,0.00
2018-09-17T06:19:40.712Z,0.00
2018-09-17T06:20:41.253Z,0.00
2018-09-17T06:21:41.868Z,0.00
2018-09-17T06:22:42.474Z,0.00
2018-09-17T06:23:43.086Z,0.00
2018-09-17T06:24:43.692Z,0.00
2018-09-17T06:25:44.306Z,0.00
2018-09-17T06:26:44.904Z,0.00
2018-09-17T06:27:45.511Z,0.00
2018-09-17T06:28:46.232Z,0.00
2018-09-17T06:29:46.765Z,0.00
2018-09-17T06:30:47.370Z,0.00
2018-09-17T06:31:47.985Z,0.00
2018-09-17T06:32:48.590Z,0.00
2018-09-17T06:33:49.200Z,0.00
2018-09-17T06:34:49.815Z,0.00
2018-09-17T06:35:50.430Z,0.00
2018-09-17T06:36:51.037Z,0.00
2018-09-17T06:37:51.648Z,0.00
2018-09-17T06:38:52.304Z,0.00
2018-09-17T06:39:52.897Z,0.00
2018-09-17T06:40:53.474Z,0.00
2018-09-17T06:41:54.083Z,0.00
2018-09-17T06:42:54.688Z,5.63
2018-09-17T06:43:55.307Z,5.63
2018-09-17T06:44:55.994Z,5.63
2018-09-17T06:45:56.512Z,5.63
2018-09-17T06:46:57.126Z,5.63
2018-09-17T06:47:57.727Z,5.63
2018-09-17T06:48:58.332Z,5.63
2018-09-17T06:49:59.118Z,5.63
2018-09-17T06:50:59.577Z,5.63
2018-09-17T06:52:00.183Z,5.63
2018-09-17T06:53:00.796Z,5.63
2018-09-17T06:54:01.408Z,5.63
2018-09-17T06:55:02.025Z,5.63
2018-09-17T06:56:02.634Z,5.63
2018-09-17T06:57:03.264Z,5.63
2018-09-17T06:58:03.861Z,5.63
2018-09-17T06:59:04.470Z,5.63
2018-09-17T07:00:05.090Z,5.63
2018-09-17T07:01:05.818Z,5.63
2018-09-17T07:02:06.297Z,5.63
2018-09-17T07:03:06.908Z,5.63
2018-09-17T07:04:07.520Z,5.63
2018-09-17T07:05:08.128Z,5.63
2018-09-17T07:06:08.791Z,5.63
2018-09-17T07:07:09.469Z,5.63
2018-09-17T07:08:09.961Z,5.63
2018-09-17T07:09:10.680Z,5.63
2018-09-17T07:10:11.197Z,5.63
2018-09-17T07:11:11.922Z,5.63
2018-09-17T07:12:12.404Z,5.63
2018-09-17T07:13:13.013Z,5.63
2018-09-17T07:14:13.624Z,5.63
2018-09-17T07:14:14.738Z,5.63
2018-09-17T07:16:14.262Z,5.63
2018-09-17T07:17:14.900Z,5.63
2018-09-17T07:18:15.526Z,5.63
2018-09-17T07:19:16.114Z,5.63
2018-09-17T07:20:16.726Z,5.63
2018-09-17T07:21:17.354Z,5.63
2018-09-17T07:22:17.979Z,5.63
2018-09-17T07:23:18.586Z,5.63
2018-09-17T07:24:19.198Z,5.63
2018-09-17T07:25:19.829Z,5.63
2018-09-17T07:26:20.423Z,5.63
2018-09-17T07:27:21.052Z,5.63
2018-09-17T07:28:21.673Z,5.63
2018-09-17T07:29:22.261Z,5.63
2018-09-17T07:30:22.871Z,5.63
2018-09-17T07:31:23.481Z,5.63
2018-09-17T07:32:24.089Z,5.63
2018-09-17T07:33:24.698Z,5.63
2018-09-17T07:34:25.311Z,5.63
2018-09-17T07:35:25.926Z,5.63
2018-09-17T07:36:26.639Z,5.63
2018-09-17T07:37:27.154Z,5.63
2018-09-17T07:38:27.752Z,5.63
2018-09-17T07:39:28.366Z,5.63
2018-09-17T07:40:29.051Z,5.63
2018-09-17T07:41:29.575Z,5.63
2018-09-17T07:42:30.188Z,5.63
2018-09-17T07:43:30.801Z,11.25
2018-09-17T07:44:31.408Z,11.25
2018-09-17T07:45:32.016Z,11.25
2018-09-17T07:46:32.637Z,11.25
2018-09-17T07:47:33.286Z,11.25
2018-09-17T07:48:33.855Z,11.25
2018-09-17T07:49:34.518Z,11.25
2018-09-17T07:50:35.074Z,11.25
2018-09-17T07:51:35.682Z,11.25
2018-09-17T07:52:36.296Z,11.25
2018-09-17T07:53:36.948Z,11.25
2018-09-17T07:54:37.556Z,11.25
2018-09-17T07:55:38.215Z,11.25
2018-09-17T07:56:38.778Z,11.25
2018-09-17T07:57:39.383Z,11.25
2018-09-17T07:58:40.048Z,11.25
2018-09-17T07:59:40.617Z,11.25
2018-09-17T08:00:41.226Z,11.25
2018-09-17T08:01:41.841Z,11.25
2018-09-17T08:02:42.453Z,11.25
2018-09-17T08:03:43.081Z,11.25
2018-09-17T08:04:43.698Z,11.25
2018-09-17T08:05:44.368Z,16.88
2018-09-17T08:06:44.925Z,16.88
2018-09-17T08:07:45.531Z,16.88
2018-09-17T08:08:46.146Z,16.88
2018-09-17T08:09:46.755Z,16.88
2018-09-17T08:10:47.368Z,16.88
2018-09-17T08:11:47.981Z,16.88
2018-09-17T08:12:48.590Z,16.88
2018-09-17T08:13:49.200Z,16.88
2018-09-17T08:14:49.809Z,16.88
2018-09-17T08:15:50.427Z,16.88
2018-09-17T08:16:51.036Z,16.88
2018-09-17T08:17:51.643Z,16.88
2018-09-17T08:18:52.263Z,16.88
2018-09-17T08:19:52.966Z,16.88
2018-09-17T08:20:53.470Z,16.88
2018-09-17T08:21:54.082Z,16.88
2018-09-17T08:22:54.693Z,16.88
2018-09-17T08:23:55.336Z,16.88
2018-09-17T08:24:55.912Z,16.88
2018-09-17T08:25:56.527Z,16.88
2018-09-17T08:25:57.628Z,16.88
2018-09-17T08:27:57.159Z,16.88
2018-09-17T08:28:57.812Z,16.88
2018-09-17T08:29:58.378Z,16.88
2018-09-17T08:30:58.990Z,16.88
2018-09-17T08:31:59.603Z,16.88
2018-09-17T08:33:00.237Z,16.88
2018-09-17T08:34:00.851Z,16.88
2018-09-17T08:35:01.464Z,16.88
2018-09-17T08:36:02.077Z,11.25
2018-09-17T08:37:02.689Z,11.25
2018-09-17T08:38:03.336Z,11.25
2018-09-17T08:39:03.984Z,11.25
2018-09-17T08:40:04.530Z,11.25
2018-09-17T08:41:05.146Z,11.25
2018-09-17T08:42:05.758Z,11.25
2018-09-17T08:43:06.383Z,11.25
2018-09-17T08:44:06.993Z,11.25
2018-09-17T08:45:07.612Z,11.25
2018-09-17T08:46:08.226Z,11.25
2018-09-17T08:47:08.841Z,11.25
2018-09-17T08:48:09.450Z,16.88
2018-09-17T08:49:10.074Z,16.88
2018-09-17T08:50:10.690Z,16.88
2018-09-17T08:51:11.303Z,16.88
2018-09-17T08:52:11.982Z,16.88
2018-09-17T08:53:12.697Z,16.88
2018-09-17T08:54:13.195Z,16.88
2018-09-17T08:55:13.798Z,16.88
2018-09-17T08:56:14.372Z,22.50
2018-09-17T08:57:14.987Z,22.50
2018-09-17T08:58:15.641Z,22.50
2018-09-17T08:59:16.220Z,22.50
2018-09-17T09:00:16.848Z,22.50
2018-09-17T09:01:17.453Z,16.88
2018-09-17T09:02:18.073Z,16.88
2018-09-17T09:03:18.680Z,16.88
2018-09-17T09:04:19.296Z,16.88
2018-09-17T09:05:19.913Z,16.88
2018-09-17T09:06:20.524Z,16.88
2018-09-17T09:07:21.143Z,16.88
2018-09-17T09:08:21.767Z,16.88
2018-09-17T09:09:22.383Z,16.88
2018-09-17T09:10:22.999Z,16.88
2018-09-17T09:11:23.694Z,16.88
2018-09-17T09:12:24.224Z,16.88
2018-09-17T09:13:24.842Z,16.88
2018-09-17T09:14:25.456Z,16.88
2018-09-17T09:15:26.075Z,16.88
2018-09-17T09:16:26.704Z,16.88
2018-09-17T09:17:27.324Z,16.88
2018-09-17T09:18:27.924Z,16.88
2018-09-17T09:19:28.550Z,16.88
2018-09-17T09:20:29.171Z,16.88
2018-09-17T09:21:29.777Z,16.88
2018-09-17T09:22:30.390Z,16.88
2018-09-17T09:23:31.023Z,16.88
2018-09-17T09:24:31.622Z,16.88
2018-09-17T09:25:32.238Z,16.88
2018-09-17T09:26:32.850Z,16.88
2018-09-17T09:27:33.476Z,22.50
2018-09-17T09:28:34.101Z,22.50
2018-09-17T09:29:34.718Z,22.50
2018-09-17T09:30:35.420Z,22.50
2018-09-17T09:31:35.934Z,22.50
2018-09-17T09:32:36.551Z,22.50
2018-09-17T09:33:37.168Z,22.50
2018-09-17T09:34:37.822Z,22.50
2018-09-17T09:35:38.404Z,22.50
2018-09-17T09:36:39.062Z,22.50
2018-09-17T09:36:40.132Z,22.50
2018-09-17T09:38:39.665Z,22.50
2018-09-17T09:39:40.281Z,22.50
2018-09-17T09:40:40.891Z,22.50
2018-09-17T09:41:41.513Z,22.50
2018-09-17T09:42:42.143Z,28.13
2018-09-17T09:43:42.761Z,28.13
2018-09-17T09:44:43.378Z,28.13
2018-09-17T09:45:43.987Z,22.50
2018-09-17T09:46:44.604Z,28.13
2018-09-17T09:47:45.227Z,28.13
2018-09-17T09:48:45.842Z,28.13
2018-09-17T09:49:46.468Z,22.50
2018-09-17T09:50:47.082Z,22.50
2018-09-17T09:51:47.698Z,22.50
2018-09-17T09:52:48.335Z,22.50
2018-09-17T09:53:48.933Z,28.13
2018-09-17T09:54:49.550Z,28.13
2018-09-17T09:55:50.171Z,28.13
2018-09-17T09:56:50.835Z,22.50
2018-09-17T09:57:51.403Z,22.50
2018-09-17T09:58:52.016Z,22.50
2018-09-17T09:59:52.635Z,22.50
2018-09-17T10:00:53.248Z,22.50
2018-09-17T10:01:53.865Z,22.50
2018-09-17T10:02:54.483Z,22.50
2018-09-17T10:03:55.130Z,22.50
2018-09-17T10:04:55.746Z,22.50
2018-09-17T10:05:56.354Z,22.50
2018-09-17T10:06:56.969Z,22.50
2018-09-17T10:07:57.587Z,22.50
2018-09-17T10:08:58.211Z,22.50
2018-09-17T10:09:58.818Z,22.50
2018-09-17T10:10:59.487Z,22.50
2018-09-17T10:12:00.051Z,22.50
2018-09-17T10:13:00.688Z,22.50
2018-09-17T10:14:01.327Z,22.50
2018-09-17T10:15:01.919Z,28.13
2018-09-17T10:16:02.534Z,28.13
2018-09-17T10:17:03.149Z,28.13
2018-09-17T10:18:03.763Z,28.13
2018-09-17T10:19:04.381Z,28.13
2018-09-17T10:20:05.014Z,28.13
2018-09-17T10:21:05.635Z,28.13
2018-09-17T10:22:06.291Z,28.13
2018-09-17T10:23:06.873Z,28.13
2018-09-17T10:24:07.491Z,28.13
2018-09-17T10:25:08.114Z,28.13
2018-09-17T10:26:08.809Z,28.13
2018-09-17T10:27:09.342Z,33.75
2018-09-17T10:28:09.974Z,28.13
2018-09-17T10:29:10.583Z,28.13
2018-09-17T10:30:11.203Z,28.13
2018-09-17T10:31:11.819Z,28.13
2018-09-17T10:32:12.443Z,28.13
2018-09-17T10:33:13.093Z,28.13
2018-09-17T10:34:13.674Z,28.13
2018-09-17T10:35:14.297Z,28.13
2018-09-17T10:36:14.914Z,28.13
2018-09-17T10:37:15.606Z,33.75
2018-09-17T10:38:16.152Z,33.75
2018-09-17T10:39:16.772Z,33.75
2018-09-17T10:40:17.387Z,33.75
2018-09-17T10:41:18.007Z,33.75
2018-09-17T10:42:18.622Z,33.75
2018-09-17T10:43:19.246Z,33.75
2018-09-17T10:44:19.869Z,33.75
2018-09-17T10:45:20.488Z,33.75
2018-09-17T10:46:21.102Z,33.75
2018-09-17T10:47:21.734Z,33.75
2018-09-17T10:48:22.342Z,33.75
2018-09-17T10:48:23.449Z,33.75
2018-09-17T10:50:23.085Z,33.75
2018-09-17T10:51:23.654Z,33.75
2018-09-17T10:52:24.288Z,33.75
2018-09-17T10:53:24.895Z,33.75
2018-09-17T10:54:25.516Z,33.75
2018-09-17T10:55:26.141Z,33.75
2018-09-17T10:56:26.810Z,33.75
2018-09-17T10:57:27.449Z,33.75
2018-09-17T10:58:28.011Z,33.75
2018-09-17T10:59:28.623Z,33.75
2018-09-17T11:00:29.266Z,33.75
2018-09-17T11:01:29.942Z,33.75
2018-09-17T11:02:30.516Z,33.75
2018-09-17T11:03:31.174Z,33.75
2018-09-17T11:04:31.773Z,33.75
2018-09-17T11:05:32.370Z,33.75
2018-09-17T11:06:32.993Z,28.13
2018-09-17T11:07:33.614Z,33.75
2018-09-17T11:08:34.236Z,33.75
2018-09-17T11:09:34.854Z,33.75
2018-09-17T11:10:35.481Z,33.75
2018-09-17T11:11:36.104Z,33.75
2018-09-17T11:12:36.727Z,33.75
2018-09-17T11:13:37.345Z,33.75
2018-09-17T11:14:37.977Z,33.75
2018-09-17T11:15:38.592Z,33.75
2018-09-17T11:16:39.221Z,33.75
2018-09-17T11:17:39.902Z,33.75
2018-09-17T11:18:40.463Z,33.75
2018-09-17T11:19:41.087Z,33.75
2018-09-17T11:20:41.711Z,39.38
2018-09-17T11:21:42.335Z,39.38
2018-09-17T11:22:42.955Z,39.38
2018-09-17T11:23:43.576Z,39.38
2018-09-17T11:24:44.210Z,39.38
2018-09-17T11:25:44.820Z,39.38
2018-09-17T11:26:45.447Z,39.38
2018-09-17T11:27:46.077Z,45.00
2018-09-17T11:28:46.692Z,45.00
2018-09-17T11:29:47.315Z,45.00
2018-09-17T11:30:47.936Z,45.00
2018-09-17T11:31:48.580Z,45.00
2018-09-17T11:32:49.204Z,45.00
2018-09-17T11:33:49.822Z,45.00
2018-09-17T11:34:50.445Z,45.00
2018-09-17T11:35:51.067Z,45.00
2018-09-17T11:36:51.698Z,45.00
2018-09-17T11:37:52.307Z,45.00
2018-09-17T11:38:52.963Z,45.00
2018-09-17T11:39:53.558Z,45.00
2018-09-17T11:40:54.183Z,45.00
2018-09-17T11:41:54.805Z,45.00
2018-09-17T11:42:55.425Z,45.00
2018-09-17T11:43:56.046Z,45.00
2018-09-17T11:44:56.667Z,45.00
2018-09-17T11:45:57.297Z,45.00
2018-09-17T11:46:57.913Z,45.00
2018-09-17T11:47:58.534Z,45.00
2018-09-17T11:48:59.159Z,39.38
2018-09-17T11:49:59.780Z,39.38
2018-09-17T11:51:00.404Z,39.38
2018-09-17T11:52:01.022Z,45.00
2018-09-17T11:53:01.640Z,39.38
2018-09-17T11:54:02.300Z,39.38
2018-09-17T11:55:02.889Z,39.38
2018-09-17T11:56:03.508Z,39.38
2018-09-17T11:57:04.133Z,39.38
2018-09-17T11:58:04.762Z,39.38
2018-09-17T11:59:05.382Z,39.38
2018-09-17T12:00:06.004Z,39.38
2018-09-17T12:00:07.107Z,39.38
2018-09-17T12:02:06.683Z,45.00
2018-09-17T12:03:07.277Z,45.00
2018-09-17T12:04:07.897Z,45.00
2018-09-17T12:05:08.520Z,45.00
2018-09-17T12:06:09.138Z,45.00
2018-09-17T12:07:09.761Z,45.00
2018-09-17T12:08:10.382Z,45.00
2018-09-17T12:09:11.013Z,39.38
2018-09-17T12:10:11.624Z,39.38
2018-09-17T12:11:12.247Z,39.38
2018-09-17T12:12:12.867Z,39.38
2018-09-17T12:13:13.500Z,39.38
2018-09-17T12:14:14.125Z,39.38
2018-09-17T12:15:14.921Z,39.38
2018-09-17T12:16:15.362Z,39.38
2018-09-17T12:17:15.986Z,39.38
2018-09-17T12:18:16.604Z,39.38
2018-09-17T12:19:17.226Z,39.38
2018-09-17T12:20:17.849Z,39.38
2018-09-17T12:21:18.474Z,39.38
2018-09-17T12:22:19.095Z,39.38
2018-09-17T12:23:19.716Z,33.75
2018-09-17T12:24:20.339Z,33.75
2018-09-17T12:25:20.963Z,33.75
2018-09-17T12:26:21.586Z,33.75
2018-09-17T12:27:22.205Z,33.75
2018-09-17T12:28:22.826Z,33.75
2018-09-17T12:29:23.445Z,33.75
2018-09-17T12:30:24.127Z,33.75
2018-09-17T12:31:24.686Z,33.75
2018-09-17T12:32:25.309Z,33.75
2018-09-17T12:33:25.929Z,33.75
2018-09-17T12:34:26.554Z,33.75
2018-09-17T12:35:27.284Z,33.75
2018-09-17T12:36:27.792Z,33.75
2018-09-17T12:37:28.412Z,33.75
2018-09-17T12:38:29.037Z,33.75
2018-09-17T12:39:29.658Z,33.75
2018-09-17T12:40:30.278Z,28.13
2018-09-17T12:41:30.949Z,33.75
2018-09-17T12:42:31.528Z,33.75
2018-09-17T12:43:32.181Z,33.75
2018-09-17T12:44:32.760Z,33.75
2018-09-17T12:45:33.383Z,33.75
2018-09-17T12:46:34.053Z,33.75
2018-09-17T12:47:34.758Z,33.75
2018-09-17T12:48:35.241Z,33.75
2018-09-17T12:49:35.868Z,33.75
2018-09-17T12:50:36.547Z,33.75
2018-09-17T12:51:37.112Z,33.75
2018-09-17T12:52:37.788Z,33.75
2018-09-17T12:53:38.397Z,33.75
2018-09-17T12:54:39.043Z,33.75
2018-09-17T12:55:39.671Z,33.75
2018-09-17T12:56:40.297Z,33.75
2018-09-17T12:57:40.907Z,33.75
2018-09-17T12:58:41.578Z,33.75
2018-09-17T12:59:42.190Z,33.75
2018-09-17T13:00:42.846Z,33.75
2018-09-17T13:01:43.428Z,28.13
2018-09-17T13:02:44.049Z,28.13
2018-09-17T13:03:44.673Z,28.13
2018-09-17T13:04:45.290Z,28.13
2018-09-17T13:05:45.916Z,28.13
2018-09-17T13:06:46.534Z,28.13
2018-09-17T13:07:47.157Z,28.13
2018-09-17T13:08:47.778Z,28.13
2018-09-17T13:09:48.396Z,28.13
2018-09-17T13:10:49.040Z,28.13
2018-09-17T13:11:49.717Z,28.13
2018-09-17T13:11:50.736Z,28.13
2018-09-17T13:13:50.275Z,28.13
2018-09-17T13:14:50.946Z,28.13
2018-09-17T13:15:51.514Z,28.13
2018-09-17T13:16:52.149Z,28.13
2018-09-17T13:17:52.801Z,28.13